Time;durP1;ratioP1;P1;durP2;ratioP2;P2;SDS_P1;SDS_P2;PMS_P1;PMS_P2;Temp;Humidity;BMP_temperature;BMP_pressure;BME280_temperature;BME280_humidity;BME280_pressure;Samples;Min_cycle;Max_cycle;Signal;HPM_P1;HPM_P2
2023/12/02 00:01:26;;;;;;;;;;;11.80;40.30;;;12.00;42.87;100022.59;5073293;28;19931;-37
2023/12/02 00:03:55;;;;;;;;;;;11.80;40.30;;;11.96;43.22;100021.34;5072999;28;19932;-37
2023/12/02 00:06:23;;;;;;;;;;;11.80;40.20;;;12.01;42.66;100025.25;5053259;28;19925;-37
2023/12/02 00:08:51;;;;;;;;;;;11.80;40.10;;;11.95;43.23;100001.09;5060907;28;20280;-36
2023/12/02 00:11:19;;;;;;;;;;;11.90;40.20;;;12.05;42.97;100021.50;5069415;28;20284;-36
2023/12/02 00:13:47;;;;;;;;;;;11.90;40.10;;;12.06;43.10;100029.22;5060715;28;19934;-35
2023/12/02 00:16:15;;;;;;;;;;;11.90;40.10;;;12.09;42.68;100024.53;5073142;28;20212;-36
2023/12/02 00:18:43;;;;;;;;;;;11.90;40.00;;;12.12;42.82;100023.09;5073159;28;19925;-37
2023/12/02 00:21:12;;;;;;;;;;;11.90;40.00;;;12.11;42.66;100026.31;5070804;28;19925;-38
2023/12/02 00:23:40;;;;;;;;;;;11.90;40.00;;;12.09;42.68;100028.66;5066904;28;19929;-36
2023/12/02 00:26:08;;;;;;;;;;;11.90;40.00;;;12.11;42.43;100028.84;5064808;28;20385;-37
2023/12/02 00:28:36;;;;;;;;;;;11.90;39.90;;;12.11;42.71;100017.16;5073304;28;20410;-36
2023/12/02 00:31:05;;;;;;;;;;;11.90;40.00;;;12.11;42.82;100026.31;5072992;28;20011;-37
2023/12/02 00:33:33;;;;;;;;;;;11.90;40.00;;;12.12;43.06;100028.13;5072915;28;19928;-37
2023/12/02 00:36:01;;;;;;;;;;;11.90;40.00;;;12.12;43.18;100028.13;5064409;28;19932;-37
2023/12/02 00:38:30;;;;;;;;;;;11.90;40.00;;;11.99;43.11;100004.13;5072802;28;19932;-36
2023/12/02 00:40:58;;;;;;;;;;;11.90;40.00;;;12.09;42.41;100019.50;5072515;28;20019;-33
2023/12/02 00:43:26;;;;;;;;;;;11.90;40.00;;;12.08;42.95;100022.72;5072782;28;19931;-33
2023/12/02 00:45:54;;;;;;;;;;;11.90;40.00;;;12.08;42.86;100025.25;5072782;28;19982;-35
2023/12/02 00:48:22;;;;;;;;;;;11.90;40.00;;;12.04;42.58;100030.66;5072769;28;19986;-35
2023/12/02 00:50:50;;;;;;;;;;;11.90;40.00;;;12.02;42.94;100027.06;5072899;28;19924;-34
2023/12/02 00:53:17;;;;;;;;;;;11.90;40.00;;;11.95;43.37;100014.53;5072313;28;19976;-35
2023/12/02 00:55:47;;;;;;;;;;;11.80;40.00;;;11.96;43.30;100016.31;5072759;28;19931;-36
2023/12/02 00:58:14;;;;;;;;;;;11.80;40.70;;;11.94;43.52;100022.81;5064515;28;19931;-35
2023/12/02 01:00:48;;;;;;;;;;;11.80;40.10;;;11.93;43.27;100015.97;5074047;28;20021;-36
2023/12/02 01:03:16;;;;;;;;;;;11.80;40.20;;;11.90;43.84;100018.13;5072276;28;20007;-36
2023/12/02 01:05:44;;;;;;;;;;;11.70;40.10;;;11.88;43.76;100017.06;5072605;28;19950;-36
2023/12/02 01:08:12;;;;;;;;;;;11.70;40.10;;;11.88;43.25;100017.06;5065875;28;19970;-35
2023/12/02 01:10:40;;;;;;;;;;;11.70;40.20;;;11.86;43.39;100023.53;5072743;28;19931;-37
2023/12/02 01:13:09;;;;;;;;;;;11.70;40.20;;;11.83;43.10;100020.66;5062391;28;20007;-36
2023/12/02 01:15:37;;;;;;;;;;;11.70;40.20;;;11.82;43.61;100023.91;5058727;28;19932;-36
2023/12/02 01:18:05;;;;;;;;;;;11.70;40.30;;;11.81;43.25;100028.75;5060844;28;19925;-36
2023/12/02 01:20:33;;;;;;;;;;;11.70;40.30;;;11.81;43.36;100028.75;5072002;28;19924;-37
2023/12/02 01:23:01;;;;;;;;;;;11.70;40.30;;;11.80;43.12;100027.84;5063396;28;19931;-35
2023/12/02 01:25:29;;;;;;;;;;;11.60;40.20;;;11.79;43.61;100033.56;5071894;28;20370;-36
2023/12/02 01:27:56;;;;;;;;;;;11.60;40.20;;;11.80;43.40;100040.41;5072031;28;20020;-35
2023/12/02 01:30:27;;;;;;;;;;;11.60;40.20;;;11.80;43.29;100042.00;5071657;28;20011;-37
2023/12/02 01:32:55;;;;;;;;;;;11.60;40.20;;;11.79;43.68;100046.13;5064390;28;19994;-36
2023/12/02 01:35:23;;;;;;;;;;;11.60;40.20;;;11.82;43.38;100038.97;5062927;28;20299;-36
2023/12/02 01:37:51;;;;;;;;;;;11.60;40.20;;;11.81;43.39;100043.81;5071810;28;19930;-35
2023/12/02 01:40:19;;;;;;;;;;;11.60;40.30;;;11.82;43.28;100044.00;5063416;28;20019;-37
2023/12/02 01:42:46;;;;;;;;;;;11.60;40.20;;;11.83;43.84;100043.25;5063099;28;19928;-36
2023/12/02 01:45:15;;;;;;;;;;;11.70;40.20;;;11.83;43.41;100048.25;5061873;28;19932;-36
2023/12/02 01:47:44;;;;;;;;;;;11.70;40.20;;;11.86;43.08;100053.66;5057508;28;19925;-36
2023/12/02 01:50:12;;;;;;;;;;;11.70;40.10;;;11.89;43.26;100053.09;5062238;28;19925;-37
2023/12/02 01:52:40;;;;;;;;;;;11.70;40.00;;;11.88;43.54;100046.31;5063768;28;19925;-37
2023/12/02 01:55:08;;;;;;;;;;;11.70;40.00;;;11.95;42.97;100048.81;5056352;28;20016;-36
2023/12/02 01:57:36;;;;;;;;;;;11.80;40.00;;;11.93;43.11;100045.22;5075637;28;19931;-36
2023/12/02 02:00:06;;;;;;;;;;;11.80;40.00;;;11.93;43.46;100048.63;5075579;28;20332;-36
2023/12/02 02:02:34;;;;;;;;;;;11.80;40.00;;;11.97;42.72;100058.28;5067015;28;19967;-36
2023/12/02 02:05:04;;;;;;;;;;;11.80;39.90;;;11.98;42.82;100050.03;5075395;28;19932;-32
2023/12/02 02:07:32;;;;;;;;;;;11.80;39.90;;;12.00;42.87;100056.13;5062922;28;19975;-36
2023/12/02 02:10:01;;;;;;;;;;;11.80;39.80;;;12.00;42.93;100053.63;5055386;28;19925;-36
2023/12/02 02:12:29;;;;;;;;;;;11.80;39.90;;;12.01;42.52;100065.44;5058472;28;19924;-36
2023/12/02 02:14:57;;;;;;;;;;;11.80;39.80;;;12.01;43.11;100055.38;5076122;28;19925;-36
2023/12/02 02:17:25;;;;;;;;;;;11.90;39.80;;;12.03;42.34;100058.97;5075586;28;19982;-37
2023/12/02 02:19:53;;;;;;;;;;;11.80;39.80;;;12.01;43.37;100070.44;5074934;28;19924;-36
2023/12/02 02:22:22;;;;;;;;;;;11.80;39.80;;;11.96;43.43;100063.13;5074512;28;20015;-37
2023/12/02 02:24:50;;;;;;;;;;;11.80;39.80;;;12.01;42.85;100064.56;5075128;28;19967;-36
2023/12/02 02:27:18;;;;;;;;;;;11.80;39.90;;;12.01;42.98;100070.44;5075089;28;19924;-35
2023/12/02 02:29:45;;;;;;;;;;;11.80;39.80;;;12.02;42.84;100066.31;5075110;28;20291;-36
2023/12/02 02:32:13;;;;;;;;;;;11.80;39.80;;;12.01;42.96;100074.59;5066997;28;19924;-37
2023/12/02 02:34:41;;;;;;;;;;;11.80;39.80;;;11.97;43.23;100058.28;5070860;28;19924;-37
2023/12/02 02:37:09;;;;;;;;;;;11.80;39.80;;;11.96;43.15;100061.50;5056270;28;19929;-37
2023/12/02 02:39:39;;;;;;;;;;;11.80;39.80;;;12.01;42.95;100064.56;5056840;28;20472;-37
2023/12/02 02:42:06;;;;;;;;;;;11.80;39.70;;;11.99;42.30;100066.88;5056404;28;19931;-36
2023/12/02 02:44:34;;;;;;;;;;;11.80;39.80;;;11.98;43.12;100070.13;5076465;28;19925;-36
2023/12/02 02:47:02;;;;;;;;;;;11.80;39.80;;;12.01;42.36;100067.94;5076132;28;20007;-36
2023/12/02 02:49:31;;;;;;;;;;;11.80;39.80;;;12.00;43.32;100073.72;5066418;28;19931;-36
2023/12/02 02:51:59;;;;;;;;;;;11.80;39.80;;;11.99;42.80;100066.00;5075151;28;20015;-37
2023/12/02 02:54:26;;;;;;;;;;;11.80;39.80;;;11.99;42.62;100061.88;5068506;28;19954;-36
2023/12/02 02:56:56;;;;;;;;;;;11.80;39.90;;;11.98;43.49;100070.13;5079435;28;19929;-36
2023/12/02 02:59:24;;;;;;;;;;;11.80;39.90;;;11.84;43.72;100050.06;5074598;28;19925;-37
2023/12/02 03:01:52;;;;;;;;;;;11.80;39.90;;;11.95;42.42;100079.78;5073542;28;19924;-37
2023/12/02 03:04:20;;;;;;;;;;;11.80;39.90;;;11.95;43.27;100069.75;5071574;28;20014;-36
2023/12/02 03:06:48;;;;;;;;;;;11.80;39.90;;;11.93;43.28;100066.19;5060204;28;20303;-36
2023/12/02 03:09:17;;;;;;;;;;;11.80;39.90;;;11.94;43.39;100067.09;5065844;28;19928;-36
2023/12/02 03:11:45;;;;;;;;;;;11.80;39.90;;;11.86;43.20;100061.19;5068916;28;20368;-36
2023/12/02 03:14:15;;;;;;;;;;;11.80;39.90;;;11.91;43.09;100067.63;5071269;28;19925;-36
2023/12/02 03:16:42;;;;;;;;;;;11.80;39.90;;;11.91;42.98;100067.63;5073992;28;19931;-35
2023/12/02 03:19:10;;;;;;;;;;;11.80;39.90;;;11.92;43.52;100069.41;5074042;28;20384;-34
2023/12/02 03:21:38;;;;;;;;;;;11.80;39.90;;;11.86;43.38;100068.72;5074247;28;19972;-36
2023/12/02 03:24:07;;;;;;;;;;;11.80;39.90;;;11.90;42.49;100070.84;5057613;28;20339;-36
2023/12/02 03:26:35;;;;;;;;;;;11.80;39.90;;;11.90;42.61;100070.84;5054387;28;20467;-35
2023/12/02 03:29:04;;;;;;;;;;;11.80;39.80;;;11.89;42.82;100059.00;5062139;28;19925;-35
2023/12/02 03:31:33;;;;;;;;;;;11.80;39.90;;;11.96;42.29;100076.56;5054722;28;19928;-34
2023/12/02 03:34:01;;;;;;;;;;;11.80;39.80;;;11.90;42.98;100068.34;5069793;28;20024;-35
2023/12/02 03:36:29;;;;;;;;;;;11.80;39.90;;;11.90;42.97;100070.84;5063173;28;20020;-35
2023/12/02 03:38:57;;;;;;;;;;;11.80;39.80;;;11.91;42.86;100077.66;5061231;28;19931;-32
2023/12/02 03:41:24;;;;;;;;;;;11.70;39.80;;;11.90;42.49;100070.84;5073727;28;20317;-31
2023/12/02 03:43:52;;;;;;;;;;;11.70;39.80;;;11.90;42.86;100075.88;5059470;28;19935;-32
2023/12/02 03:46:27;;;;;;;;;;;11.80;39.90;;;11.88;42.93;100077.31;5054323;28;20023;-32
2023/12/02 03:48:57;;;;;;;;;;;11.70;39.80;;;11.90;42.79;100078.38;5068534;28;20339;-34
2023/12/02 03:51:25;;;;;;;;;;;11.70;39.80;;;11.90;43.26;100075.88;5070871;28;19924;-32
2023/12/02 03:53:53;;;;;;;;;;;11.70;39.80;;;11.89;43.07;100084.09;5059212;28;19925;-32
2023/12/02 03:56:21;;;;;;;;;;;11.70;39.80;;;11.91;42.83;100080.16;5073007;28;20369;-33
2023/12/02 03:58:49;;;;;;;;;;;11.70;39.90;;;11.90;42.39;100080.88;5059622;28;19925;-32
2023/12/02 04:01:17;;;;;;;;;;;11.70;39.80;;;11.86;42.72;100078.75;5071146;28;20319;-32
2023/12/02 04:03:45;;;;;;;;;;;11.70;39.80;;;11.91;43.46;100082.69;5073143;28;19940;-32
2023/12/02 04:06:14;;;;;;;;;;;11.70;39.90;;;11.91;43.45;100087.69;5073241;28;19924;-33
2023/12/02 04:08:42;;;;;;;;;;;11.70;39.90;;;11.91;42.72;100092.72;5060279;28;20389;-31
2023/12/02 04:11:10;;;;;;;;;;;11.70;40.40;;;11.89;43.15;100086.63;5069300;28;19928;-32
2023/12/02 04:13:38;;;;;;;;;;;11.70;39.90;;;11.93;42.86;100091.28;5061125;28;19924;-34
2023/12/02 04:16:06;;;;;;;;;;;11.70;39.80;;;11.93;42.94;100096.31;5060901;28;20011;-33
2023/12/02 04:18:34;;;;;;;;;;;11.80;39.90;;;11.94;43.25;100094.69;5069946;28;20007;-31
2023/12/02 04:21:05;;;;;;;;;;;11.80;39.90;;;11.95;42.41;100099.88;5068640;28;19935;-34
2023/12/02 04:23:35;;;;;;;;;;;11.80;39.80;;;11.97;42.93;100108.50;5056534;28;19924;-33
2023/12/02 04:26:03;;;;;;;;;;;11.80;39.80;;;11.98;42.74;100105.25;5073846;28;19979;-32
2023/12/02 04:28:30;;;;;;;;;;;11.80;39.80;;;12.01;42.74;100110.63;5056586;28;20388;-34
2023/12/02 04:30:58;;;;;;;;;;;11.80;39.80;;;11.98;42.80;100117.81;5073219;28;20007;-32
2023/12/02 04:33:26;;;;;;;;;;;11.80;39.70;;;12.00;42.36;100113.88;5064894;28;20038;-34
2023/12/02 04:35:54;;;;;;;;;;;11.80;39.60;;;11.98;42.95;100115.31;5067384;28;19924;-33
2023/12/02 04:38:22;;;;;;;;;;;11.80;39.60;;;12.01;42.92;100115.66;5063222;28;19924;-35
2023/12/02 04:40:51;;;;;;;;;;;11.80;39.70;;;12.00;42.29;100118.91;5062048;28;19925;-36
2023/12/02 04:43:20;;;;;;;;;;;11.80;39.70;;;12.00;43.16;100121.41;5059539;28;20399;-33
2023/12/02 04:45:47;;;;;;;;;;;11.80;39.60;;;12.00;42.84;100128.94;5072916;28;20127;-32
2023/12/02 04:48:15;;;;;;;;;;;11.80;39.70;;;12.01;42.27;100130.72;5063984;28;19924;-33
2023/12/02 04:50:43;;;;;;;;;;;11.80;39.70;;;11.96;43.14;100126.78;5072540;28;19993;-34
2023/12/02 04:53:11;;;;;;;;;;;11.80;39.70;;;12.02;42.78;100135.03;5055586;28;19925;-39
2023/12/02 04:55:39;;;;;;;;;;;11.80;39.70;;;11.97;42.58;100128.56;5072389;28;20303;-34
2023/12/02 04:58:09;;;;;;;;;;;11.80;39.70;;;12.01;42.48;100130.72;5064175;28;19946;-33
2023/12/02 05:00:37;;;;;;;;;;;11.80;39.70;;;11.96;42.79;100126.78;5072514;28;20399;-35
2023/12/02 05:03:05;;;;;;;;;;;11.80;39.70;;;11.99;42.52;100137.19;5065538;28;19933;-33
2023/12/02 05:05:33;;;;;;;;;;;11.80;39.70;;;11.99;43.13;100137.19;5071712;28;19931;-32
2023/12/02 05:08:04;;;;;;;;;;;11.80;39.70;;;11.99;43.01;100133.78;5072500;28;20261;-33
2023/12/02 05:10:32;;;;;;;;;;;11.80;39.70;;;11.99;42.47;100147.22;5061053;28;20440;-32
2023/12/02 05:13:00;;;;;;;;;;;11.80;39.70;;;11.96;42.31;100141.84;5059261;28;20311;-34
2023/12/02 05:15:29;;;;;;;;;;;11.80;39.70;;;11.99;42.30;100152.25;5073063;28;19925;-33
2023/12/02 05:17:57;;;;;;;;;;;11.80;39.70;;;12.01;42.62;100149.94;5072159;28;20431;-35
2023/12/02 05:20:25;;;;;;;;;;;11.80;39.70;;;11.99;42.75;100152.25;5055443;28;19924;-34
2023/12/02 05:22:53;;;;;;;;;;;11.80;39.80;;;11.94;42.36;100148.31;5071876;28;19924;-35
2023/12/02 05:25:21;;;;;;;;;;;11.80;39.70;;;11.95;42.27;100150.09;5064028;28;20015;-35
2023/12/02 05:27:49;;;;;;;;;;;11.80;39.70;;;11.98;42.61;100150.47;5068309;28;20422;-36
2023/12/02 05:30:17;;;;;;;;;;;11.80;39.70;;;11.95;42.80;100155.09;5070799;28;19931;-35
2023/12/02 05:32:48;;;;;;;;;;;11.80;39.70;;;11.97;42.99;100152.78;5086509;28;19932;-34
2023/12/02 05:35:16;;;;;;;;;;;11.80;39.70;;;11.96;42.79;100151.88;5087979;28;20291;-34
2023/12/02 05:37:43;;;;;;;;;;;11.80;39.70;;;11.97;43.17;100147.75;5067618;28;19931;-35
2023/12/02 05:40:12;;;;;;;;;;;11.80;39.80;;;11.95;42.74;100144.19;5084514;28;20007;-35
2023/12/02 05:42:40;;;;;;;;;;;11.70;39.70;;;11.95;42.34;100145.06;5092614;28;19932;-33
2023/12/02 05:45:09;;;;;;;;;;;11.80;39.70;;;11.93;42.66;100151.53;5077467;28;19925;-35
2023/12/02 05:47:36;;;;;;;;;;;11.80;39.70;;;11.92;42.87;100154.78;5077188;28;19928;-33
2023/12/02 05:50:07;;;;;;;;;;;11.80;39.80;;;11.92;42.28;100149.75;5077262;28;19978;-33
2023/12/02 05:52:34;;;;;;;;;;;11.80;39.70;;;11.88;42.28;100150.13;5077001;28;20337;-33
2023/12/02 05:55:03;;;;;;;;;;;11.80;39.80;;;11.90;43.17;100153.69;5061739;28;20012;-33
2023/12/02 05:57:33;;;;;;;;;;;11.80;39.70;;;11.93;42.54;100165.72;5074786;28;19931;-34
2023/12/02 06:00:01;;;;;;;;;;;11.80;39.70;;;11.93;42.63;100161.59;5069641;28;20385;-33
2023/12/02 06:02:29;;;;;;;;;;;11.70;39.70;;;11.92;42.86;100159.78;5073763;28;19924;-33
2023/12/02 06:04:57;;;;;;;;;;;11.80;39.70;;;11.95;43.00;100165.16;5075587;28;19925;-33
2023/12/02 06:07:26;;;;;;;;;;;11.80;39.70;;;11.94;42.46;100163.38;5075812;28;19978;-34
2023/12/02 06:09:54;;;;;;;;;;;11.80;39.70;;;11.95;43.08;100167.66;5061851;28;20352;-35
2023/12/02 06:12:22;;;;;;;;;;;11.80;39.70;;;11.96;43.12;100163.53;5070703;28;20018;-34
2023/12/02 06:14:50;;;;;;;;;;;11.70;39.60;;;11.96;42.76;100166.94;5074203;28;19932;-34
2023/12/02 06:17:18;;;;;;;;;;;11.80;39.70;;;11.97;42.83;100177.88;5073876;28;19977;-35
2023/12/02 06:19:46;;;;;;;;;;;11.80;39.70;;;11.97;42.14;100177.88;5073954;28;19956;-34
2023/12/02 06:22:14;;;;;;;;;;;11.70;39.70;;;11.94;42.87;100178.44;5057559;28;20012;-36
2023/12/02 06:24:43;;;;;;;;;;;11.80;39.80;;;11.93;43.12;100166.59;5065569;28;20395;-35
2023/12/02 06:27:11;;;;;;;;;;;11.80;39.80;;;11.93;43.25;100186.69;5066326;28;19932;-33
2023/12/02 06:29:39;;;;;;;;;;;11.80;39.70;;;11.91;42.86;100177.19;5063722;28;19935;-33
2023/12/02 06:32:07;;;;;;;;;;;11.80;39.70;;;11.96;42.57;100182.00;5060546;28;19968;-35
2023/12/02 06:34:35;;;;;;;;;;;11.80;39.70;;;11.96;43.08;100181.09;5061522;28;19928;-33
2023/12/02 06:37:05;;;;;;;;;;;11.80;39.70;;;11.96;42.07;100177.00;5053358;28;19929;-33
2023/12/02 06:39:33;;;;;;;;;;;11.80;39.70;;;11.94;42.76;100183.47;5072297;28;20425;-33
2023/12/02 06:42:02;;;;;;;;;;;11.70;39.60;;;11.97;42.90;100193.84;5068082;28;19925;-34
2023/12/02 06:44:30;;;;;;;;;;;11.80;39.70;;;11.91;42.42;100178.06;5071125;28;20342;-35
2023/12/02 06:46:58;;;;;;;;;;;11.80;39.70;;;11.97;42.57;100188.84;5073429;28;19931;-33
2023/12/02 06:49:26;;;;;;;;;;;11.80;39.70;;;11.97;42.12;100188.84;5073380;28;19924;-33
2023/12/02 06:51:55;;;;;;;;;;;11.80;39.70;;;11.94;42.94;100203.56;5073396;28;20003;-34
2023/12/02 06:54:23;;;;;;;;;;;11.80;39.80;;;11.95;42.35;100205.31;5072798;28;20303;-33
2023/12/02 06:56:51;;;;;;;;;;;11.80;39.70;;;11.93;43.02;100206.78;5073249;28;19924;-33
2023/12/02 06:59:21;;;;;;;;;;;11.80;39.70;;;11.93;42.65;100211.78;5073376;28;20358;-33
2023/12/02 07:01:49;;;;;;;;;;;11.70;39.70;;;11.92;43.15;100212.50;5073543;28;19925;-35
2023/12/02 07:04:16;;;;;;;;;;;11.70;39.70;;;11.87;42.83;100206.06;5073341;28;19928;-32
2023/12/02 07:06:44;;;;;;;;;;;11.70;39.70;;;11.92;42.79;100219.13;5065435;28;19924;-34
2023/12/02 07:09:12;;;;;;;;;;;11.70;39.70;;;11.93;43.11;100226.84;5073535;28;19924;-33
2023/12/02 07:11:40;;;;;;;;;;;11.80;39.70;;;11.84;43.03;100213.22;5073483;28;19928;-33
2023/12/02 07:14:08;;;;;;;;;;;11.80;39.70;;;11.93;42.98;100229.38;5001112;28;1752693;-32
2023/12/02 07:16:37;;;;;;;;;;;11.80;39.70;;;11.95;42.48;100230.41;5074426;28;20323;-33
2023/12/02 07:19:05;;;;;;;;;;;11.80;39.70;;;11.92;42.47;100235.09;5067959;28;20036;-34
2023/12/02 07:21:33;;;;;;;;;;;11.80;39.70;;;11.93;42.39;100241.94;5055974;28;19967;-34
2023/12/02 07:24:01;;;;;;;;;;;11.70;39.60;;;11.93;42.98;100244.44;5074043;28;19936;-34
2023/12/02 07:26:29;;;;;;;;;;;11.70;39.70;;;11.93;42.74;100246.94;5055878;28;20054;-35
2023/12/02 07:28:57;;;;;;;;;;;11.70;39.70;;;11.88;42.27;100237.97;5067269;28;19928;-34
2023/12/02 07:31:25;;;;;;;;;;;11.70;39.70;;;11.93;43.29;100251.97;5057014;28;20016;-36
2023/12/02 07:33:54;;;;;;;;;;;11.70;39.60;;;11.92;42.32;100255.19;5053816;28;19999;-33
2023/12/02 07:36:23;;;;;;;;;;;11.70;39.60;;;11.95;42.66;100259.69;5053653;28;19924;-31
2023/12/02 07:38:50;;;;;;;;;;;11.70;39.70;;;11.93;42.85;100257.00;5057746;28;20027;-32
2023/12/02 07:41:18;;;;;;;;;;;11.80;39.70;;;11.93;42.45;100262.00;5073567;28;19967;-33
2023/12/02 07:43:46;;;;;;;;;;;11.70;39.60;;;11.91;43.19;100263.44;5057001;28;19924;-32
2023/12/02 07:46:14;;;;;;;;;;;11.70;39.70;;;11.93;42.77;100262.00;5073715;28;19938;-34
2023/12/02 07:48:42;;;;;;;;;;;11.70;39.60;;;11.91;42.19;100258.41;5072972;28;20305;-34
2023/12/02 07:51:12;;;;;;;;;;;11.70;39.70;;;11.92;43.23;100270.25;5068502;28;20015;-32
2023/12/02 07:53:40;;;;;;;;;;;11.70;39.70;;;11.92;42.34;100267.75;5072945;28;19970;-35
2023/12/02 07:56:09;;;;;;;;;;;11.70;39.70;;;11.90;42.25;100266.66;5065433;28;19925;-33
2023/12/02 07:58:37;;;;;;;;;;;11.70;39.70;;;11.92;43.05;100270.25;5073161;28;19924;-32
2023/12/02 08:01:05;;;;;;;;;;;11.70;39.60;;;11.92;42.80;100270.25;5065102;28;20377;-34
2023/12/02 08:03:33;;;;;;;;;;;11.70;39.60;;;11.91;42.39;100283.50;5062791;28;19924;-32
2023/12/02 08:06:01;;;;;;;;;;;11.70;39.60;;;11.92;43.18;100284.41;5053578;28;19929;-32
2023/12/02 08:08:30;;;;;;;;;;;11.80;39.60;;;11.91;42.94;100283.50;5069735;28;19931;-33
2023/12/02 08:10:58;;;;;;;;;;;11.80;39.60;;;11.91;43.18;100293.56;5066341;28;19925;-33
2023/12/02 08:13:26;;;;;;;;;;;11.80;39.70;;;11.92;42.42;100285.31;5066396;28;19925;-35
2023/12/02 08:15:54;;;;;;;;;;;11.80;39.60;;;11.92;42.43;100290.34;5072844;28;19924;-33
2023/12/02 08:18:22;;;;;;;;;;;11.70;39.60;;;11.90;42.66;100291.75;5056887;28;20446;-33
2023/12/02 08:20:50;;;;;;;;;;;11.70;39.60;;;11.91;42.05;100288.53;5053027;28;20023;-34
2023/12/02 08:23:18;;;;;;;;;;;11.70;39.50;;;11.89;42.72;100294.97;5061334;28;20015;-35
2023/12/02 08:25:47;;;;;;;;;;;11.80;39.60;;;11.93;42.77;100292.13;5064453;28;19924;-36
2023/12/02 08:28:15;;;;;;;;;;;11.80;39.60;;;11.92;42.83;100295.34;5064873;28;19924;-33
2023/12/02 08:30:43;;;;;;;;;;;11.70;39.60;;;11.93;43.01;100297.16;5064637;28;19979;-33
2023/12/02 08:33:11;;;;;;;;;;;11.70;39.50;;;11.94;42.10;100303.06;5064910;28;19924;-35
2023/12/02 08:35:40;;;;;;;;;;;11.80;39.70;;;11.93;42.55;100302.19;5073098;28;20011;-33
2023/12/02 08:38:08;;;;;;;;;;;11.80;39.60;;;11.91;42.34;100302.69;5064927;28;20398;-34
2023/12/02 08:40:36;;;;;;;;;;;11.70;39.50;;;11.92;42.04;100307.91;5071538;28;19971;-33
2023/12/02 08:43:05;;;;;;;;;;;11.70;39.60;;;11.90;42.76;100306.81;5058321;28;19924;-30
2023/12/02 08:45:33;;;;;;;;;;;11.70;39.60;;;11.90;42.71;100316.84;5072653;28;19925;-31
2023/12/02 08:48:01;;;;;;;;;;;11.70;39.50;;;11.94;42.46;100319.03;5063200;28;19967;-33
2023/12/02 08:50:29;;;;;;;;;;;11.80;39.60;;;11.92;42.97;100312.94;5071787;28;19934;-34
2023/12/02 08:52:57;;;;;;;;;;;11.70;39.60;;;11.91;42.66;100317.75;5059701;28;19972;-33
2023/12/02 08:55:25;;;;;;;;;;;11.70;39.60;;;11.90;42.89;100316.84;5068831;28;20398;-39
2023/12/02 08:57:54;;;;;;;;;;;11.70;39.60;;;11.90;42.37;100321.88;5064426;28;19925;-32
2023/12/02 09:00:23;;;;;;;;;;;11.70;39.60;;;11.90;42.48;100326.91;5072218;28;19935;-32
2023/12/02 09:02:51;;;;;;;;;;;11.70;39.60;;;11.87;43.25;100326.56;5072489;28;20019;-34
2023/12/02 09:05:19;;;;;;;;;;;11.70;39.50;;;11.90;43.14;100331.91;5072176;28;19925;-35
2023/12/02 09:07:47;;;;;;;;;;;11.70;39.60;;;11.88;42.66;100333.38;5069094;28;20011;-33
2023/12/02 09:10:15;;;;;;;;;;;11.70;39.50;;;11.82;43.17;100320.09;5052299;28;19932;-34
2023/12/02 09:12:43;;;;;;;;;;;11.70;39.60;;;11.89;42.67;100340.16;5068281;28;19925;-34
2023/12/02 09:15:38;;;;;;;;;;;11.70;39.60;;;11.89;43.17;100340.16;5079943;28;19979;-35
2023/12/02 09:18:08;;;;;;;;;;;11.70;40.20;;;11.89;42.70;100347.69;5067987;28;19979;-34
2023/12/02 09:20:43;;;;;;;;;;;11.70;39.60;;;11.87;42.21;100340.72;5072841;28;19970;-32
2023/12/02 09:23:11;;;;;;;;;;;11.70;39.60;;;11.87;42.58;100343.22;5072322;28;20344;-34
2023/12/02 09:25:40;;;;;;;;;;;11.70;39.60;;;11.86;42.39;100352.38;5072306;28;20372;-33
2023/12/02 09:28:17;;;;;;;;;;;11.70;39.60;;;11.86;42.13;100349.84;5059005;28;19924;-34
2023/12/02 09:31:03;;;;;;;;;;;11.70;39.60;;;11.88;42.86;100363.50;5055662;28;19996;-32
2023/12/02 09:33:37;;;;;;;;;;;11.70;39.60;;;11.89;42.52;100359.34;5062952;28;19925;-33
2023/12/02 09:36:05;;;;;;;;;;;11.70;39.60;;;11.87;42.48;100366.72;5066189;28;19931;-35
2023/12/02 09:38:33;;;;;;;;;;;11.70;39.50;;;11.91;42.41;100367.97;5072240;28;20427;-36
2023/12/02 09:41:14;;;;;;;;;;;11.70;39.50;;;11.90;41.95;100364.56;5072566;28;19978;-33
2023/12/02 09:43:48;;;;;;;;;;;11.70;39.50;;;11.88;42.81;100368.53;5064024;28;19928;-33
2023/12/02 09:46:33;;;;;;;;;;;11.70;39.50;;;11.89;43.04;100370.28;5057164;28;19925;-35
2023/12/02 09:49:10;;;;;;;;;;;11.70;39.50;;;11.93;42.18;100372.47;5065068;28;20347;-32
2023/12/02 09:51:50;;;;;;;;;;;11.80;39.50;;;11.92;42.59;100369.78;5055153;28;19932;-34
2023/12/02 09:54:21;;;;;;;;;;;11.70;39.50;;;11.81;42.43;100355.94;5071631;28;19964;-33
2023/12/02 09:56:53;;;;;;;;;;;11.70;39.50;;;11.92;42.33;100370.66;5071424;28;20379;-32
2023/12/02 09:59:22;;;;;;;;;;;11.70;40.10;;;11.82;42.03;100357.75;5071703;28;20306;-33
2023/12/02 10:01:56;;;;;;;;;;;11.70;39.50;;;11.91;42.67;100373.00;5071707;28;20006;-34
2023/12/02 10:04:30;;;;;;;;;;;11.80;39.60;;;11.63;42.51;100318.56;5071458;28;20281;-33
2023/12/02 10:07:01;;;;;;;;;;;11.70;39.40;;;11.87;42.45;100366.72;5051361;28;20027;-34
2023/12/02 10:09:37;;;;;;;;;;;11.70;39.40;;;11.87;42.53;100373.34;5068189;28;19978;-34
2023/12/02 10:12:13;;;;;;;;;;;11.70;39.50;;;11.90;42.85;100372.09;5059696;28;19940;-32
2023/12/02 10:14:42;;;;;;;;;;;11.70;39.50;;;11.89;42.81;100370.28;5056890;28;20012;-31
2023/12/02 10:17:12;;;;;;;;;;;11.70;39.50;;;11.90;42.63;100369.59;5075327;28;19930;-32
2023/12/02 10:19:40;;;;;;;;;;;11.70;39.50;;;11.88;42.23;100378.56;5074660;28;19924;-33
2023/12/02 10:22:10;;;;;;;;;;;11.70;39.40;;;11.89;42.47;100370.28;5067003;28;19924;-34
2023/12/02 10:24:41;;;;;;;;;;;11.70;39.40;;;11.88;43.21;100373.53;5074417;28;20368;-34
2023/12/02 10:27:10;;;;;;;;;;;11.70;39.40;;;11.89;42.70;100365.25;5075207;28;20010;-34
2023/12/02 10:29:44;;;;;;;;;;;11.70;39.50;;;11.88;42.73;100368.53;5075324;28;20004;-33
2023/12/02 10:32:17;;;;;;;;;;;11.70;39.50;;;11.88;43.12;100368.53;5075281;28;20284;-33
2023/12/02 10:34:48;;;;;;;;;;;11.70;39.50;;;11.86;42.41;100364.91;5074908;28;19925;-33
2023/12/02 10:37:16;;;;;;;;;;;11.70;39.50;;;11.88;42.99;100373.53;5074968;28;20015;-32
2023/12/02 10:39:46;;;;;;;;;;;11.70;39.50;;;11.89;42.53;100371.91;5066700;28;20284;-33
2023/12/02 10:42:17;;;;;;;;;;;11.70;39.50;;;11.89;42.72;100364.38;5074959;28;20396;-32
2023/12/02 10:44:49;;;;;;;;;;;11.70;39.50;;;11.90;42.43;100371.19;5074890;28;19924;-34
2023/12/02 10:47:18;;;;;;;;;;;11.70;39.40;;;11.86;42.91;100369.94;5074940;28;19983;-34
2023/12/02 10:49:46;;;;;;;;;;;11.70;39.50;;;11.86;42.69;100364.91;5064080;28;19975;-33
2023/12/02 10:52:14;;;;;;;;;;;11.70;39.40;;;11.88;43.02;100358.47;5068936;28;19928;-34
2023/12/02 10:54:45;;;;;;;;;;;11.70;39.50;;;11.88;41.97;100358.47;5056368;28;20343;-35
2023/12/02 10:57:13;;;;;;;;;;;11.70;39.50;;;11.88;42.43;100357.56;5056937;28;19929;-36
2023/12/02 10:59:43;;;;;;;;;;;11.70;39.50;;;11.89;43.03;100360.25;5066386;28;19925;-33
2023/12/02 11:02:25;;;;;;;;;;;11.70;39.40;;;11.89;41.96;100359.34;5077174;28;19930;-33
2023/12/02 11:04:56;;;;;;;;;;;11.70;39.40;;;11.91;42.01;100361.34;5076968;28;19935;-34
2023/12/02 11:07:24;;;;;;;;;;;11.70;39.50;;;11.90;42.21;100363.66;5076845;28;19929;-35
2023/12/02 11:09:54;;;;;;;;;;;11.70;39.40;;;11.71;42.74;100337.94;5076888;28;20011;-35
2023/12/02 11:12:24;;;;;;;;;;;11.70;39.40;;;11.91;41.89;100373.00;5061919;28;19968;-33
2023/12/02 11:14:55;;;;;;;;;;;11.80;39.40;;;11.87;42.85;100359.19;5074725;28;19924;-35
2023/12/02 11:17:29;;;;;;;;;;;11.80;39.50;;;11.93;42.74;100367.44;5074731;28;19985;-33